• Join FlightAware (Why Join?)
  • Login
  • US Flag 
 
01:45PM EST


 

Airport Tracker/Info


-or-


 

Live Flight TrackerFlight Track Log ✈ THU105 ✈ 04-Jul-2014 ✈ CYTS - CYEE

Flight Track Log - Related Links

Times and Time Zones

All times are in EDT time to prevent confusion due to time zone crossing. See the THU105 flight status page for this flight to view local times or setup timezone preferences in your user account.

Time Position Orientation Groundspeed Altitude Reporting Facility
EDT Latitude Longitude Course Direction KTS MPH feet Rate Location/Type
02:01PM 48.5135 -81.3530 164° South  Level FlightAware Approximate
02:02PM 48.4529 -81.3278 165° South  Level FlightAware Approximate
02:03PM 48.3965 -81.3053 165° South  Level FlightAware Approximate
02:04PM 48.5134 -81.3540 164° South  Level Estimated
02:05PM 48.4572 -81.3303 164° South  Level FlightAware Approximate
02:05PM 48.3333 -81.2667 168° South 180 207 10,700  Level Toronto Center
02:06PM 48.4008 -81.3078 165° South  Level Estimated
02:06PM 48.2833 -81.2667 180° South 190 219 11,800  Level Toronto Center
02:07PM 48.3445 -81.2853 163° South  Level Estimated
02:07PM 48.2333 -81.2333 156° South 200 230 12,700  Level Toronto Center
02:08PM 48.2884 -81.2608 164° South  Level FlightAware Approximate
02:08PM 48.1833 -81.2000 156° South 190 219 13,600  Level Toronto Center
02:09PM 48.2324 -81.2364 164° South  Level FlightAware Approximate
02:09PM 48.1167 -81.1833 171° South 200 230 14,400  Level Toronto Center
02:10PM 48.0667 -81.1833 180° South 200 230 15,300 840 Climbing Toronto Center
02:11PM 48.0167 -81.1500 156° South 210 242 16,100 720 Climbing Toronto Center
02:12PM 47.9500 -81.1167 161° South 200 230 16,800 420 Climbing Toronto Center
02:13PM 47.9000 -81.1000 167° South 220 253 17,000 120 Climbing Toronto Center
02:14PM 47.8333 -81.0667 161° South 230 265 17,100  Climbing Toronto Center
02:15PM 47.7667 -81.0500 170° South 240 276 17,000 120 Descending Toronto Center
02:16PM 47.7000 -81.0167 161° South 240 276 17,400 360 Climbing Toronto Center
02:17PM 47.6333 -81.0167 180° South 220 253 17,800 480 Climbing Toronto Center
02:18PM 47.5833 -80.9833 156° South 220 253 18,400 600 Climbing Toronto Center
02:19PM 47.5167 -80.9667 170° South 220 253 19,000 240 Climbing Toronto Center
02:20PM 47.4667 -80.9333 156° South 220 253 18,900  Descending Toronto Center
02:21PM 47.4000 -80.9167 170° South 240 276 19,000  Climbing Toronto Center
02:22PM 47.3500 -80.8833 156° South 250 288 18,900  Descending Toronto Center
02:23PM 47.2833 -80.8667 170° South 250 288 19,100  Climbing Toronto Center
02:24PM 47.2167 -80.8833 190° South 250 288 19,000 -60 Descending Toronto Center
02:25PM 47.1500 -80.8833 180° South 250 288 19,000  Level Toronto Center
02:26PM 47.0833 -80.8833 180° South 250 288 19,000 60 Level Toronto Center
02:27PM 47.0167 -80.8833 180° South 250 288 19,200 420 Climbing Toronto Center
02:28PM 46.9500 -80.8833 180° South 230 265 19,900 540 Climbing Toronto Center
02:29PM 46.8833 -80.9000 190° South 220 253 20,300 300 Climbing Toronto Center
02:30PM 46.8167 -80.9000 180° South 220 253 20,600 300 Climbing Toronto Center
02:31PM 46.7500 -80.9167 190° South 230 265 20,900 180 Climbing Toronto Center
02:32PM 46.6833 -80.9167 180° South 230 265 21,000  Climbing Toronto Center
02:33PM 46.6167 -80.9500 199° South 240 276 21,000  Level Toronto Center
02:34PM 46.5500 -80.9333 170° South 250 288 21,000  Level Toronto Center
02:35PM 46.4667 -80.9333 180° South 250 288 21,000  Level Toronto Center
02:36PM 46.4000 -80.9333 180° South 250 288 21,000  Level Toronto Center
02:37PM 46.3333 -80.9333 180° South 250 288 21,000 -60 Level Toronto Center
02:38PM 46.2667 -80.9333 180° South 250 288 20,900  Descending Toronto Center
02:39PM 46.2000 -80.9333 180° South 250 288 21,000  Climbing Toronto Center
02:40PM 46.1333 -80.9333 180° South 250 288 21,000  Level Toronto Center
02:41PM 46.0667 -80.9333 180° South 250 288 21,000  Level Toronto Center
02:42PM 46.0167 -80.8833 145° Southeast 240 276 21,000  Level Toronto Center
02:43PM 45.9667 -80.8333 145° Southeast 240 276 21,000  Level Toronto Center
02:44PM 45.9000 -80.7833 152° Southeast 240 276 21,000  Level Toronto Center
02:45PM 45.8500 -80.7333 145° Southeast 240 276 21,000  Level Toronto Center
02:46PM 45.7833 -80.6833 152° Southeast 240 276 21,000  Level Toronto Center
02:47PM 45.7167 -80.6667 170° South 240 276 21,000  Level Toronto Center
02:48PM 45.6667 -80.6167 145° Southeast 240 276 21,000  Level Toronto Center
02:49PM 45.6000 -80.5667 152° Southeast 240 276 21,000 -300 Level Toronto Center
02:50PM 45.5500 -80.5167 145° Southeast 240 276 20,400 -1,140 Descending Toronto Center
02:51PM 45.4667 -80.4667 157° South 270 311 18,800 -1,680 Descending Toronto Center
02:52PM 45.4000 -80.4167 152° Southeast 280 322 17,100 -1,800 Descending Toronto Center
02:53PM 45.3333 -80.3667 152° Southeast 280 322 15,200 -1,800 Descending Toronto Center
02:54PM 45.2667 -80.3167 152° Southeast 270 311 13,600 -1,620 Descending Toronto Center
02:56PM 45.1333 -80.2167 152° Southeast 250 288 10,500 -1,440 Descending Toronto Center
02:58PM 45.0167 -80.1500 158° South 250 288 8,000 -1,260 Descending Toronto Center
03:00PM 44.8833 -80.0833 160° South 240 276 5,600 -1,200 Descending Toronto Center